PWSweather.com
Personal Weather Stations
Station Observations
BREAKEY01
Lévis, Breakeyville, QC G0S 1E1

LévisBreakeyville, QC G0S 1E1

Lat: 46.681, Lon: -71.224

Elevation: 328

Station Type: Davis Vantage Pro2

http://www.meteobreakey.webou.net/topic/index.php

Latest ConditionsUpdated 1:47:08 PM EDT Tuesday, Sep 30, 2014
Currently Today's Max Today's Min Today's Average
Temperature 47.7°F8.7°C 47.8°F8.8°C 43.5°F6.4°C 45.8°F7.7°C
Dew Point 46.0°F7.8°C 46.2°F7.9°C 42.4°F5.8°C 44.7°F7.1°C
Winds 6.9 mph E11.1 kmh E 11.0 mph E17.7 kmh E - 7.3 mph 11.7 kmh
Wind Gusts 4.0 mph6.4 kmh 16.1 mph25.9 kmh - -
Humidity 94% 97% 94% 96%
Pressure 30.08 in1018.6 mb 30.09 in1019.0 mb 30.04 in1017.3 mb -
Hour Temp Dew Point Humidity Winds Wind Gusts Pressure Precip Precip Rate Daily Precip Total
01:47 PM 47.7°F8.7°C 46.0°F7.8°C 94% 6.9 mph E11.1 kmh E 4.0 mph6.4 kmh 30.08 in1018.6 mb 0.00 in0.0 mm 0.00 in/hr0.0 mm/hr 0.00 in0.0 mm
01:42 PM 47.7°F8.7°C 46.0°F7.8°C 94% 6.9 mph ENE11.1 kmh ENE 8.1 mph13.0 kmh 30.08 in1018.6 mb 0.00 in0.0 mm 0.00 in/hr0.0 mm/hr 0.00 in0.0 mm
01:37 PM 47.7°F8.7°C 46.0°F7.8°C 94% 8.1 mph NE13.0 kmh NE 6.0 mph9.7 kmh 30.08 in1018.6 mb 0.00 in0.0 mm 0.00 in/hr0.0 mm/hr 0.00 in0.0 mm
01:32 PM 47.8°F8.8°C 46.2°F7.9°C 94% 6.9 mph NE11.1 kmh NE 10.1 mph16.3 kmh 30.08 in1018.6 mb 0.00 in0.0 mm 0.00 in/hr0.0 mm/hr 0.00 in0.0 mm
01:27 PM 47.7°F8.7°C 46.0°F7.8°C 94% 8.1 mph NE13.0 kmh NE 6.0 mph9.7 kmh 30.08 in1018.6 mb 0.00 in0.0 mm 0.00 in/hr0.0 mm/hr 0.00 in0.0 mm
01:22 PM 47.7°F8.7°C 46.0°F7.8°C 94% 8.1 mph NE13.0 kmh NE 10.1 mph16.3 kmh 30.08 in1018.6 mb 0.00 in0.0 mm 0.00 in/hr0.0 mm/hr 0.00 in0.0 mm
01:17 PM 47.7°F8.7°C 46.0°F7.8°C 94% 8.1 mph NE13.0 kmh NE 8.9 mph14.3 kmh 30.08 in1018.6 mb 0.00 in0.0 mm 0.00 in/hr0.0 mm/hr 0.00 in0.0 mm
01:12 PM 47.7°F8.7°C 46.0°F7.8°C 94% 8.1 mph NE13.0 kmh NE 10.1 mph16.3 kmh 30.08 in1018.6 mb 0.00 in0.0 mm 0.00 in/hr0.0 mm/hr 0.00 in0.0 mm
01:07 PM 47.7°F8.7°C 46.0°F7.8°C 94% 6.9 mph E11.1 kmh E 12.1 mph19.5 kmh 30.08 in1018.6 mb 0.00 in0.0 mm 0.00 in/hr0.0 mm/hr 0.00 in0.0 mm
01:02 PM 47.7°F8.7°C 46.0°F7.8°C 94% 4.9 mph E7.9 kmh E 4.0 mph6.4 kmh 30.08 in1018.6 mb 0.00 in0.0 mm 0.00 in/hr0.0 mm/hr 0.00 in0.0 mm
12:57 PM 47.7°F8.7°C 46.2°F7.9°C 95% 6.0 mph ENE9.7 kmh ENE 2.0 mph3.2 kmh 30.08 in1018.6 mb 0.00 in0.0 mm 0.00 in/hr0.0 mm/hr 0.00 in0.0 mm
12:52 PM 47.7°F8.7°C 46.2°F7.9°C 95% 8.1 mph ENE13.0 kmh ENE 4.0 mph6.4 kmh 30.08 in1018.6 mb 0.00 in0.0 mm 0.00 in/hr0.0 mm/hr 0.00 in0.0 mm
12:47 PM 47.5°F8.6°C 46.0°F7.8°C 95% 6.9 mph E11.1 kmh E 6.9 mph11.1 kmh 30.08 in1018.6 mb 0.00 in0.0 mm 0.00 in/hr0.0 mm/hr 0.00 in0.0 mm
12:42 PM 47.5°F8.6°C 46.0°F7.8°C 95% 6.0 mph NE9.7 kmh NE 8.9 mph14.3 kmh 30.08 in1018.6 mb 0.00 in0.0 mm 0.00 in/hr0.0 mm/hr 0.00 in0.0 mm
12:32 PM 47.1°F8.4°C 45.7°F7.6°C 95% 6.9 mph ENE11.1 kmh ENE 8.1 mph13.0 kmh 30.08 in1018.6 mb 0.00 in0.0 mm 0.00 in/hr0.0 mm/hr 0.00 in0.0 mm
12:27 PM 46.9°F8.3°C 45.5°F7.5°C 95% 8.1 mph ENE13.0 kmh ENE 4.9 mph7.9 kmh 30.08 in1018.6 mb 0.00 in0.0 mm 0.00 in/hr0.0 mm/hr 0.00 in0.0 mm
12:22 PM 46.8°F8.2°C 45.3°F7.4°C 95% 8.1 mph E13.0 kmh E 8.9 mph14.3 kmh 30.08 in1018.6 mb 0.00 in0.0 mm 0.00 in/hr0.0 mm/hr 0.00 in0.0 mm
12:17 PM 46.8°F8.2°C 45.7°F7.6°C 96% 8.9 mph E14.3 kmh E 6.9 mph11.1 kmh 30.08 in1018.6 mb 0.00 in0.0 mm 0.00 in/hr0.0 mm/hr 0.00 in0.0 mm
12:12 PM 46.8°F8.2°C 45.7°F7.6°C 96% 8.1 mph E13.0 kmh E 4.9 mph7.9 kmh 30.08 in1018.6 mb 0.00 in0.0 mm 0.00 in/hr0.0 mm/hr 0.00 in0.0 mm
12:07 PM 46.8°F8.2°C 45.7°F7.6°C 96% 8.1 mph ENE13.0 kmh ENE 4.9 mph7.9 kmh 30.08 in1018.6 mb 0.00 in0.0 mm 0.00 in/hr0.0 mm/hr 0.00 in0.0 mm
12:02 PM 46.8°F8.2°C 45.7°F7.6°C 96% 6.9 mph ENE11.1 kmh ENE 4.9 mph7.9 kmh 30.08 in1018.6 mb 0.00 in0.0 mm 0.00 in/hr0.0 mm/hr 0.00 in0.0 mm
11:57 AM 46.9°F8.3°C 45.9°F7.7°C 96% 4.9 mph ENE7.9 kmh ENE 8.1 mph13.0 kmh 30.08 in1018.6 mb 0.00 in0.0 mm 0.00 in/hr0.0 mm/hr 0.00 in0.0 mm
11:52 AM 46.9°F8.3°C 45.9°F7.7°C 96% 6.0 mph E9.7 kmh E 6.9 mph11.1 kmh 30.08 in1018.6 mb 0.00 in0.0 mm 0.00 in/hr0.0 mm/hr 0.00 in0.0 mm
11:47 AM 46.8°F8.2°C 45.7°F7.6°C 96% 6.9 mph E11.1 kmh E -- 30.08 in1018.6 mb 0.00 in0.0 mm 0.00 in/hr0.0 mm/hr 0.00 in0.0 mm
11:42 AM 46.9°F8.3°C 45.9°F7.7°C 96% 6.0 mph ENE9.7 kmh ENE 12.1 mph19.5 kmh 30.08 in1018.6 mb 0.00 in0.0 mm 0.00 in/hr0.0 mm/hr 0.00 in0.0 mm
11:37 AM 46.8°F8.2°C 45.7°F7.6°C 96% 6.0 mph ENE9.7 kmh ENE 6.0 mph9.7 kmh 30.08 in1018.6 mb 0.00 in0.0 mm 0.00 in/hr0.0 mm/hr 0.00 in0.0 mm
11:32 AM 46.8°F8.2°C 45.7°F7.6°C 96% 6.0 mph ENE9.7 kmh ENE 4.0 mph6.4 kmh 30.08 in1018.6 mb 0.00 in0.0 mm 0.00 in/hr0.0 mm/hr 0.00 in0.0 mm
11:27 AM 46.8°F8.2°C 45.7°F7.6°C 96% 6.9 mph NE11.1 kmh NE 10.1 mph16.3 kmh 30.08 in1018.6 mb 0.00 in0.0 mm 0.00 in/hr0.0 mm/hr 0.00 in0.0 mm
11:22 AM 46.6°F8.1°C 45.5°F7.5°C 96% 8.1 mph ESE13.0 kmh ESE 6.0 mph9.7 kmh 30.08 in1018.6 mb 0.00 in0.0 mm 0.00 in/hr0.0 mm/hr 0.00 in0.0 mm
11:17 AM 46.6°F8.1°C 45.5°F7.5°C 96% 8.1 mph ENE13.0 kmh ENE 12.1 mph19.5 kmh 30.08 in1018.6 mb 0.00 in0.0 mm 0.00 in/hr0.0 mm/hr 0.00 in0.0 mm
11:12 AM 46.6°F8.1°C 45.5°F7.5°C 96% 6.9 mph NE11.1 kmh NE 8.9 mph14.3 kmh 30.09 in1019.0 mb 0.00 in0.0 mm 0.00 in/hr0.0 mm/hr 0.00 in0.0 mm
11:07 AM 46.4°F8.0°C 45.3°F7.4°C 96% 8.1 mph NE13.0 kmh NE 4.0 mph6.4 kmh 30.09 in1019.0 mb 0.00 in0.0 mm 0.00 in/hr0.0 mm/hr 0.00 in0.0 mm
11:02 AM 46.6°F8.1°C 45.5°F7.5°C 96% 8.1 mph ENE13.0 kmh ENE 8.9 mph14.3 kmh 30.09 in1019.0 mb 0.00 in0.0 mm 0.00 in/hr0.0 mm/hr 0.00 in0.0 mm
10:57 AM 46.4°F8.0°C 45.3°F7.4°C 96% 6.9 mph NE11.1 kmh NE 12.1 mph19.5 kmh 30.09 in1019.0 mb 0.00 in0.0 mm 0.00 in/hr0.0 mm/hr 0.00 in0.0 mm
10:52 AM 46.4°F8.0°C 45.3°F7.4°C 96% 6.9 mph NE11.1 kmh NE 6.0 mph9.7 kmh 30.09 in1019.0 mb 0.00 in0.0 mm 0.00 in/hr0.0 mm/hr 0.00 in0.0 mm
10:47 AM 46.6°F8.1°C 45.5°F7.5°C 96% 6.9 mph E11.1 kmh E 8.1 mph13.0 kmh 30.09 in1019.0 mb 0.00 in0.0 mm 0.00 in/hr0.0 mm/hr 0.00 in0.0 mm
10:42 AM 46.4°F8.0°C 45.3°F7.4°C 96% 8.1 mph NE13.0 kmh NE 2.9 mph4.7 kmh 30.09 in1019.0 mb 0.00 in0.0 mm 0.00 in/hr0.0 mm/hr 0.00 in0.0 mm
10:37 AM 46.6°F8.1°C 45.5°F7.5°C 96% 8.1 mph NE13.0 kmh NE 4.9 mph7.9 kmh 30.09 in1019.0 mb 0.00 in0.0 mm 0.00 in/hr0.0 mm/hr 0.00 in0.0 mm
10:32 AM 46.6°F8.1°C 45.5°F7.5°C 96% 6.9 mph ENE11.1 kmh ENE 2.9 mph4.7 kmh 30.09 in1019.0 mb 0.00 in0.0 mm 0.00 in/hr0.0 mm/hr 0.00 in0.0 mm
10:27 AM 46.6°F8.1°C 45.5°F7.5°C 96% 6.0 mph N9.7 kmh N 4.0 mph6.4 kmh 30.09 in1019.0 mb 0.00 in0.0 mm 0.00 in/hr0.0 mm/hr 0.00 in0.0 mm
10:22 AM 46.6°F8.1°C 45.5°F7.5°C 96% 4.9 mph E7.9 kmh E 8.9 mph14.3 kmh 30.09 in1019.0 mb 0.00 in0.0 mm 0.00 in/hr0.0 mm/hr 0.00 in0.0 mm
10:17 AM 46.4°F8.0°C 45.3°F7.4°C 96% 6.9 mph ENE11.1 kmh ENE 4.0 mph6.4 kmh 30.09 in1019.0 mb 0.00 in0.0 mm 0.00 in/hr0.0 mm/hr 0.00 in0.0 mm
10:12 AM 46.2°F7.9°C 45.1°F7.3°C 96% 8.1 mph NE13.0 kmh NE 6.0 mph9.7 kmh 30.09 in1019.0 mb 0.00 in0.0 mm 0.00 in/hr0.0 mm/hr 0.00 in0.0 mm
10:07 AM 46.4°F8.0°C 45.3°F7.4°C 96% 6.9 mph E11.1 kmh E 8.9 mph14.3 kmh 30.09 in1019.0 mb 0.00 in0.0 mm 0.00 in/hr0.0 mm/hr 0.00 in0.0 mm
10:02 AM 46.6°F8.1°C 45.5°F7.5°C 96% 6.9 mph ENE11.1 kmh ENE 4.9 mph7.9 kmh 30.09 in1019.0 mb 0.00 in0.0 mm 0.00 in/hr0.0 mm/hr 0.00 in0.0 mm
09:57 AM 46.6°F8.1°C 45.5°F7.5°C 96% 6.0 mph E9.7 kmh E 6.9 mph11.1 kmh 30.09 in1019.0 mb 0.00 in0.0 mm 0.00 in/hr0.0 mm/hr 0.00 in0.0 mm
09:52 AM 46.6°F8.1°C 45.5°F7.5°C 96% 4.9 mph ENE7.9 kmh ENE 8.1 mph13.0 kmh 30.09 in1019.0 mb 0.00 in0.0 mm 0.00 in/hr0.0 mm/hr 0.00 in0.0 mm
09:47 AM 46.6°F8.1°C 45.5°F7.5°C 96% 6.9 mph ENE11.1 kmh ENE 4.0 mph6.4 kmh 30.09 in1019.0 mb 0.00 in0.0 mm 0.00 in/hr0.0 mm/hr 0.00 in0.0 mm
09:42 AM 46.4°F8.0°C 45.3°F7.4°C 96% 6.9 mph E11.1 kmh E 8.9 mph14.3 kmh 30.09 in1019.0 mb 0.00 in0.0 mm 0.00 in/hr0.0 mm/hr 0.00 in0.0 mm
09:37 AM 46.2°F7.9°C 45.1°F7.3°C 96% 6.9 mph ESE11.1 kmh ESE 2.9 mph4.7 kmh 30.09 in1019.0 mb 0.00 in0.0 mm 0.00 in/hr0.0 mm/hr 0.00 in0.0 mm
09:32 AM 46.2°F7.9°C 45.1°F7.3°C 96% 6.0 mph ENE9.7 kmh ENE 10.1 mph16.3 kmh 30.09 in1019.0 mb 0.00 in0.0 mm 0.00 in/hr0.0 mm/hr 0.00 in0.0 mm
09:27 AM 46.2°F7.9°C 45.1°F7.3°C 96% 6.0 mph E9.7 kmh E 4.0 mph6.4 kmh 30.09 in1019.0 mb 0.00 in0.0 mm 0.00 in/hr0.0 mm/hr 0.00 in0.0 mm
09:22 AM 46.0°F7.8°C 45.0°F7.2°C 96% 6.9 mph ENE11.1 kmh ENE 4.9 mph7.9 kmh 30.09 in1019.0 mb 0.00 in0.0 mm 0.00 in/hr0.0 mm/hr 0.00 in0.0 mm
09:17 AM 46.0°F7.8°C 45.0°F7.2°C 96% 6.9 mph NE11.1 kmh NE 6.0 mph9.7 kmh 30.09 in1019.0 mb 0.00 in0.0 mm 0.00 in/hr0.0 mm/hr 0.00 in0.0 mm
09:12 AM 46.0°F7.8°C 45.0°F7.2°C 96% 6.9 mph E11.1 kmh E 6.0 mph9.7 kmh 30.09 in1019.0 mb 0.00 in0.0 mm 0.00 in/hr0.0 mm/hr 0.00 in0.0 mm
09:07 AM 46.0°F7.8°C 45.0°F7.2°C 96% 6.9 mph SSE11.1 kmh SSE 2.9 mph4.7 kmh 30.09 in1019.0 mb 0.00 in0.0 mm 0.00 in/hr0.0 mm/hr 0.00 in0.0 mm
09:02 AM 46.0°F7.8°C 45.0°F7.2°C 96% 6.0 mph NE9.7 kmh NE 6.0 mph9.7 kmh 30.09 in1019.0 mb 0.00 in0.0 mm 0.00 in/hr0.0 mm/hr 0.00 in0.0 mm
08:57 AM 46.0°F7.8°C 45.0°F7.2°C 96% 4.9 mph E7.9 kmh E 10.1 mph16.3 kmh 30.09 in1019.0 mb 0.00 in0.0 mm 0.00 in/hr0.0 mm/hr 0.00 in0.0 mm
08:52 AM 46.0°F7.8°C 45.0°F7.2°C 96% 4.9 mph E7.9 kmh E 6.9 mph11.1 kmh 30.09 in1019.0 mb 0.00 in0.0 mm 0.00 in/hr0.0 mm/hr 0.00 in0.0 mm
08:47 AM 46.0°F7.8°C 45.0°F7.2°C 96% 6.0 mph E9.7 kmh E 6.0 mph9.7 kmh 30.09 in1019.0 mb 0.00 in0.0 mm 0.00 in/hr0.0 mm/hr 0.00 in0.0 mm
08:42 AM 46.0°F7.8°C 45.0°F7.2°C 96% 6.0 mph NE9.7 kmh NE 6.9 mph11.1 kmh 30.09 in1019.0 mb 0.00 in0.0 mm 0.00 in/hr0.0 mm/hr 0.00 in0.0 mm
08:37 AM 45.9°F7.7°C 44.8°F7.1°C 96% 6.9 mph E11.1 kmh E 2.9 mph4.7 kmh 30.09 in1019.0 mb 0.00 in0.0 mm 0.00 in/hr0.0 mm/hr 0.00 in0.0 mm
08:32 AM 45.9°F7.7°C 44.8°F7.1°C 96% 6.0 mph ESE9.7 kmh ESE 8.9 mph14.3 kmh 30.09 in1019.0 mb 0.00 in0.0 mm 0.00 in/hr0.0 mm/hr 0.00 in0.0 mm
08:27 AM 45.9°F7.7°C 44.8°F7.1°C 96% 4.9 mph E7.9 kmh E 8.9 mph14.3 kmh 30.09 in1019.0 mb 0.00 in0.0 mm 0.00 in/hr0.0 mm/hr 0.00 in0.0 mm
08:22 AM 45.9°F7.7°C 44.8°F7.1°C 96% 6.0 mph ENE9.7 kmh ENE 0.9 mph1.4 kmh 30.09 in1019.0 mb 0.00 in0.0 mm 0.00 in/hr0.0 mm/hr 0.00 in0.0 mm
08:17 AM 45.9°F7.7°C 44.8°F7.1°C 96% 6.0 mph E9.7 kmh E 2.0 mph3.2 kmh 30.09 in1019.0 mb 0.00 in0.0 mm 0.00 in/hr0.0 mm/hr 0.00 in0.0 mm
08:12 AM 45.9°F7.7°C 44.8°F7.1°C 96% 6.9 mph E11.1 kmh E 11.0 mph17.7 kmh 30.08 in1018.6 mb 0.00 in0.0 mm 0.00 in/hr0.0 mm/hr 0.00 in0.0 mm
08:07 AM 45.9°F7.7°C 44.8°F7.1°C 96% 6.9 mph ENE11.1 kmh ENE 4.9 mph7.9 kmh 30.08 in1018.6 mb 0.00 in0.0 mm 0.00 in/hr0.0 mm/hr 0.00 in0.0 mm
08:02 AM 45.9°F7.7°C 44.8°F7.1°C 96% 6.9 mph NE11.1 kmh NE 10.1 mph16.3 kmh 30.08 in1018.6 mb 0.00 in0.0 mm 0.00 in/hr0.0 mm/hr 0.00 in0.0 mm
07:57 AM 45.9°F7.7°C 44.8°F7.1°C 96% 6.0 mph E9.7 kmh E 8.1 mph13.0 kmh 30.09 in1019.0 mb 0.00 in0.0 mm 0.00 in/hr0.0 mm/hr 0.00 in0.0 mm
07:52 AM 45.7°F7.6°C 44.6°F7.0°C 96% 4.9 mph E7.9 kmh E 4.9 mph7.9 kmh 30.09 in1019.0 mb 0.00 in0.0 mm 0.00 in/hr0.0 mm/hr 0.00 in0.0 mm
07:47 AM 45.7°F7.6°C 44.6°F7.0°C 96% 6.0 mph E9.7 kmh E 2.0 mph3.2 kmh 30.09 in1019.0 mb 0.00 in0.0 mm 0.00 in/hr0.0 mm/hr 0.00 in0.0 mm
07:42 AM 45.7°F7.6°C 44.6°F7.0°C 96% 6.9 mph E11.1 kmh E 6.9 mph11.1 kmh 30.09 in1019.0 mb 0.00 in0.0 mm 0.00 in/hr0.0 mm/hr 0.00 in0.0 mm
07:37 AM 45.7°F7.6°C 44.6°F7.0°C 96% 6.0 mph E9.7 kmh E 6.9 mph11.1 kmh 30.09 in1019.0 mb 0.00 in0.0 mm 0.00 in/hr0.0 mm/hr 0.00 in0.0 mm
07:32 AM 45.7°F7.6°C 44.6°F7.0°C 96% 4.0 mph E6.4 kmh E 4.9 mph7.9 kmh 30.09 in1019.0 mb 0.00 in0.0 mm 0.00 in/hr0.0 mm/hr 0.00 in0.0 mm
07:27 AM 45.7°F7.6°C 44.6°F7.0°C 96% 4.0 mph E6.4 kmh E 6.9 mph11.1 kmh 30.08 in1018.6 mb 0.00 in0.0 mm 0.00 in/hr0.0 mm/hr 0.00 in0.0 mm
07:22 AM 45.5°F7.5°C 44.4°F6.9°C 96% 6.0 mph ENE9.7 kmh ENE 2.0 mph3.2 kmh 30.08 in1018.6 mb 0.00 in0.0 mm 0.00 in/hr0.0 mm/hr 0.00 in0.0 mm
07:17 AM 45.5°F7.5°C 44.4°F6.9°C 96% 6.9 mph E11.1 kmh E 6.0 mph9.7 kmh 30.07 in1018.3 mb 0.00 in0.0 mm 0.00 in/hr0.0 mm/hr 0.00 in0.0 mm
07:12 AM 45.3°F7.4°C 44.2°F6.8°C 96% 8.1 mph E13.0 kmh E 6.0 mph9.7 kmh 30.07 in1018.3 mb 0.00 in0.0 mm 0.00 in/hr0.0 mm/hr 0.00 in0.0 mm
07:07 AM 45.3°F7.4°C 44.2°F6.8°C 96% 8.9 mph ENE14.3 kmh ENE 6.0 mph9.7 kmh 30.07 in1018.3 mb 0.00 in0.0 mm 0.00 in/hr0.0 mm/hr 0.00 in0.0 mm
07:02 AM 45.3°F7.4°C 44.2°F6.8°C 96% 8.9 mph ENE14.3 kmh ENE 6.0 mph9.7 kmh 30.06 in1017.9 mb 0.00 in0.0 mm 0.00 in/hr0.0 mm/hr 0.00 in0.0 mm
06:57 AM 45.5°F7.5°C 44.4°F6.9°C 96% 8.9 mph E14.3 kmh E 13.0 mph20.9 kmh 30.06 in1017.9 mb 0.00 in0.0 mm 0.00 in/hr0.0 mm/hr 0.00 in0.0 mm
06:52 AM 45.5°F7.5°C 44.4°F6.9°C 96% 8.9 mph E14.3 kmh E 10.1 mph16.3 kmh 30.06 in1017.9 mb 0.00 in0.0 mm 0.00 in/hr0.0 mm/hr 0.00 in0.0 mm
06:47 AM 45.7°F7.6°C 44.6°F7.0°C 96% 8.9 mph ENE14.3 kmh ENE 8.9 mph14.3 kmh 30.06 in1017.9 mb 0.00 in0.0 mm 0.00 in/hr0.0 mm/hr 0.00 in0.0 mm
06:42 AM 45.7°F7.6°C 44.6°F7.0°C 96% 8.9 mph E14.3 kmh E 4.9 mph7.9 kmh 30.07 in1018.3 mb 0.00 in0.0 mm 0.00 in/hr0.0 mm/hr 0.00 in0.0 mm
06:37 AM 45.7°F7.6°C 44.6°F7.0°C 96% 10.1 mph E16.3 kmh E 6.0 mph9.7 kmh 30.07 in1018.3 mb 0.00 in0.0 mm 0.00 in/hr0.0 mm/hr 0.00 in0.0 mm
06:32 AM 45.7°F7.6°C 44.6°F7.0°C 96% 8.1 mph E13.0 kmh E 8.9 mph14.3 kmh 30.07 in1018.3 mb 0.00 in0.0 mm 0.00 in/hr0.0 mm/hr 0.00 in0.0 mm
06:27 AM 45.9°F7.7°C 44.8°F7.1°C 96% 8.1 mph ENE13.0 kmh ENE 6.0 mph9.7 kmh 30.07 in1018.3 mb 0.00 in0.0 mm 0.00 in/hr0.0 mm/hr 0.00 in0.0 mm
06:22 AM 45.9°F7.7°C 44.8°F7.1°C 96% 8.9 mph ENE14.3 kmh ENE 10.1 mph16.3 kmh 30.07 in1018.3 mb 0.00 in0.0 mm 0.00 in/hr0.0 mm/hr 0.00 in0.0 mm
06:17 AM 45.9°F7.7°C 44.8°F7.1°C 96% 10.1 mph E16.3 kmh E 8.9 mph14.3 kmh 30.06 in1017.9 mb 0.00 in0.0 mm 0.00 in/hr0.0 mm/hr 0.00 in0.0 mm
06:12 AM 45.9°F7.7°C 44.8°F7.1°C 96% 10.1 mph E16.3 kmh E 4.9 mph7.9 kmh 30.06 in1017.9 mb 0.00 in0.0 mm 0.00 in/hr0.0 mm/hr 0.00 in0.0 mm
06:07 AM 45.9°F7.7°C 44.8°F7.1°C 96% 10.1 mph E16.3 kmh E 10.1 mph16.3 kmh 30.07 in1018.3 mb 0.00 in0.0 mm 0.00 in/hr0.0 mm/hr 0.00 in0.0 mm
06:02 AM 45.9°F7.7°C 44.8°F7.1°C 96% 8.9 mph NE14.3 kmh NE 12.1 mph19.5 kmh 30.06 in1017.9 mb 0.00 in0.0 mm 0.00 in/hr0.0 mm/hr 0.00 in0.0 mm
05:57 AM 45.9°F7.7°C 44.8°F7.1°C 96% 8.1 mph NE13.0 kmh NE 8.9 mph14.3 kmh 30.06 in1017.9 mb 0.00 in0.0 mm 0.00 in/hr0.0 mm/hr 0.00 in0.0 mm
05:52 AM 46.0°F7.8°C 45.0°F7.2°C 96% 6.9 mph ENE11.1 kmh ENE 8.1 mph13.0 kmh 30.06 in1017.9 mb 0.00 in0.0 mm 0.00 in/hr0.0 mm/hr 0.00 in0.0 mm
05:47 AM 45.9°F7.7°C 44.8°F7.1°C 96% 6.9 mph E11.1 kmh E 2.9 mph4.7 kmh 30.06 in1017.9 mb 0.00 in0.0 mm 0.00 in/hr0.0 mm/hr 0.00 in0.0 mm
05:37 AM 45.9°F7.7°C 44.8°F7.1°C 96% 10.1 mph ENE16.3 kmh ENE 4.0 mph6.4 kmh 30.05 in1017.6 mb 0.00 in0.0 mm 0.00 in/hr0.0 mm/hr 0.00 in0.0 mm
05:32 AM 45.9°F7.7°C 44.8°F7.1°C 96% 8.1 mph ENE13.0 kmh ENE 16.1 mph25.9 kmh 30.06 in1017.9 mb 0.00 in0.0 mm 0.00 in/hr0.0 mm/hr 0.00 in0.0 mm
05:22 AM 45.9°F7.7°C 44.8°F7.1°C 96% 6.9 mph NE11.1 kmh NE 4.9 mph7.9 kmh 30.05 in1017.6 mb 0.00 in0.0 mm 0.00 in/hr0.0 mm/hr 0.00 in0.0 mm
05:17 AM 45.9°F7.7°C 44.8°F7.1°C 96% 6.9 mph ENE11.1 kmh ENE 6.0 mph9.7 kmh 30.05 in1017.6 mb 0.00 in0.0 mm 0.00 in/hr0.0 mm/hr 0.00 in0.0 mm
05:12 AM 45.9°F7.7°C 44.8°F7.1°C 96% 6.0 mph E9.7 kmh E 8.9 mph14.3 kmh 30.05 in1017.6 mb 0.00 in0.0 mm 0.00 in/hr0.0 mm/hr 0.00 in0.0 mm
05:07 AM 45.9°F7.7°C 44.8°F7.1°C 96% 6.0 mph E9.7 kmh E 8.1 mph13.0 kmh 30.05 in1017.6 mb 0.00 in0.0 mm 0.00 in/hr0.0 mm/hr 0.00 in0.0 mm
05:02 AM 46.0°F7.8°C 45.0°F7.2°C 96% 6.0 mph E9.7 kmh E 8.9 mph14.3 kmh 30.05 in1017.6 mb 0.00 in0.0 mm 0.00 in/hr0.0 mm/hr 0.00 in0.0 mm
04:57 AM 46.0°F7.8°C 45.0°F7.2°C 96% 4.9 mph E7.9 kmh E 8.9 mph14.3 kmh 30.05 in1017.6 mb 0.00 in0.0 mm 0.00 in/hr0.0 mm/hr 0.00 in0.0 mm
04:52 AM 46.0°F7.8°C 45.0°F7.2°C 96% 6.0 mph ENE9.7 kmh ENE 6.0 mph9.7 kmh 30.05 in1017.6 mb 0.00 in0.0 mm 0.00 in/hr0.0 mm/hr 0.00 in0.0 mm
04:47 AM 45.9°F7.7°C 44.8°F7.1°C 96% 4.9 mph ENE7.9 kmh ENE 2.9 mph4.7 kmh 30.05 in1017.6 mb 0.00 in0.0 mm 0.00 in/hr0.0 mm/hr 0.00 in0.0 mm
04:42 AM 45.9°F7.7°C 44.8°F7.1°C 96% 4.9 mph E7.9 kmh E 8.1 mph13.0 kmh 30.05 in1017.6 mb 0.00 in0.0 mm 0.00 in/hr0.0 mm/hr 0.00 in0.0 mm
04:37 AM 45.9°F7.7°C 44.8°F7.1°C 96% 6.0 mph E9.7 kmh E 6.0 mph9.7 kmh 30.05 in1017.6 mb 0.00 in0.0 mm 0.00 in/hr0.0 mm/hr 0.00 in0.0 mm
04:32 AM 45.9°F7.7°C 44.8°F7.1°C 96% 8.1 mph E13.0 kmh E 11.0 mph17.7 kmh 30.05 in1017.6 mb 0.00 in0.0 mm 0.00 in/hr0.0 mm/hr 0.00 in0.0 mm
04:27 AM 45.9°F7.7°C 44.8°F7.1°C 96% 8.9 mph ENE14.3 kmh ENE 4.0 mph6.4 kmh 30.05 in1017.6 mb 0.00 in0.0 mm 0.00 in/hr0.0 mm/hr 0.00 in0.0 mm
04:22 AM 45.9°F7.7°C 44.8°F7.1°C 96% 6.0 mph E9.7 kmh E 14.1 mph22.7 kmh 30.04 in1017.3 mb 0.00 in0.0 mm 0.00 in/hr0.0 mm/hr 0.00 in0.0 mm
04:17 AM 45.9°F7.7°C 44.8°F7.1°C 96% 4.0 mph E6.4 kmh E 4.0 mph6.4 kmh 30.04 in1017.3 mb 0.00 in0.0 mm 0.00 in/hr0.0 mm/hr 0.00 in0.0 mm
04:12 AM 45.9°F7.7°C 44.8°F7.1°C 96% 2.9 mph E4.7 kmh E 4.9 mph7.9 kmh 30.05 in1017.6 mb 0.00 in0.0 mm 0.00 in/hr0.0 mm/hr 0.00 in0.0 mm
04:07 AM 45.9°F7.7°C 44.8°F7.1°C 96% 4.9 mph ESE7.9 kmh ESE 2.9 mph4.7 kmh 30.05 in1017.6 mb 0.00 in0.0 mm 0.00 in/hr0.0 mm/hr 0.00 in0.0 mm
04:02 AM 45.7°F7.6°C 44.6°F7.0°C 96% 6.9 mph ENE11.1 kmh ENE 4.0 mph6.4 kmh 30.05 in1017.6 mb 0.00 in0.0 mm 0.00 in/hr0.0 mm/hr 0.00 in0.0 mm
03:57 AM 45.7°F7.6°C 45.0°F7.2°C 97% 8.1 mph ENE13.0 kmh ENE 10.1 mph16.3 kmh 30.05 in1017.6 mb 0.00 in0.0 mm 0.00 in/hr0.0 mm/hr 0.00 in0.0 mm
03:52 AM 45.7°F7.6°C 44.6°F7.0°C 96% 6.0 mph E9.7 kmh E 14.1 mph22.7 kmh 30.05 in1017.6 mb 0.00 in0.0 mm 0.00 in/hr0.0 mm/hr 0.00 in0.0 mm
03:47 AM 45.5°F7.5°C 44.4°F6.9°C 96% 4.9 mph ENE7.9 kmh ENE 0.9 mph1.4 kmh 30.05 in1017.6 mb 0.00 in0.0 mm 0.00 in/hr0.0 mm/hr 0.00 in0.0 mm
03:42 AM 45.5°F7.5°C 44.4°F6.9°C 96% 6.0 mph ESE9.7 kmh ESE 4.0 mph6.4 kmh 30.05 in1017.6 mb 0.00 in0.0 mm 0.00 in/hr0.0 mm/hr 0.00 in0.0 mm
03:37 AM 45.5°F7.5°C 44.4°F6.9°C 96% 8.1 mph ESE13.0 kmh ESE 8.9 mph14.3 kmh 30.05 in1017.6 mb 0.00 in0.0 mm 0.00 in/hr0.0 mm/hr 0.00 in0.0 mm
03:32 AM 45.3°F7.4°C 44.2°F6.8°C 96% 8.1 mph E13.0 kmh E 4.9 mph7.9 kmh 30.05 in1017.6 mb 0.00 in0.0 mm 0.00 in/hr0.0 mm/hr 0.00 in0.0 mm
03:27 AM 45.3°F7.4°C 44.2°F6.8°C 96% 6.0 mph ENE9.7 kmh ENE 8.9 mph14.3 kmh 30.05 in1017.6 mb 0.00 in0.0 mm 0.00 in/hr0.0 mm/hr 0.00 in0.0 mm
03:22 AM 45.3°F7.4°C 44.2°F6.8°C 96% 4.9 mph E7.9 kmh E 6.9 mph11.1 kmh 30.05 in1017.6 mb 0.00 in0.0 mm 0.00 in/hr0.0 mm/hr 0.00 in0.0 mm
03:17 AM 45.3°F7.4°C 44.2°F6.8°C 96% 6.0 mph E9.7 kmh E 6.9 mph11.1 kmh 30.05 in1017.6 mb 0.00 in0.0 mm 0.00 in/hr0.0 mm/hr 0.00 in0.0 mm
03:12 AM 45.3°F7.4°C 44.2°F6.8°C 96% 6.0 mph E9.7 kmh E 6.0 mph9.7 kmh 30.05 in1017.6 mb 0.00 in0.0 mm 0.00 in/hr0.0 mm/hr 0.00 in0.0 mm
03:07 AM 45.1°F7.3°C 44.1°F6.7°C 96% 6.0 mph ENE9.7 kmh ENE 4.9 mph7.9 kmh 30.05 in1017.6 mb 0.00 in0.0 mm 0.00 in/hr0.0 mm/hr 0.00 in0.0 mm
03:02 AM 45.1°F7.3°C 44.1°F6.7°C 96% 6.9 mph ENE11.1 kmh ENE 2.0 mph3.2 kmh 30.05 in1017.6 mb 0.00 in0.0 mm 0.00 in/hr0.0 mm/hr 0.00 in0.0 mm
02:57 AM 45.0°F7.2°C 43.9°F6.6°C 96% 6.0 mph E9.7 kmh E 4.0 mph6.4 kmh 30.05 in1017.6 mb 0.00 in0.0 mm 0.00 in/hr0.0 mm/hr 0.00 in0.0 mm
02:52 AM 45.0°F7.2°C 43.9°F6.6°C 96% 6.9 mph E11.1 kmh E 6.0 mph9.7 kmh 30.05 in1017.6 mb 0.00 in0.0 mm 0.00 in/hr0.0 mm/hr 0.00 in0.0 mm
02:47 AM 44.8°F7.1°C 43.7°F6.5°C 96% 8.1 mph E13.0 kmh E 6.9 mph11.1 kmh 30.05 in1017.6 mb 0.00 in0.0 mm 0.00 in/hr0.0 mm/hr 0.00 in0.0 mm
02:42 AM 44.8°F7.1°C 43.7°F6.5°C 96% 8.1 mph ENE13.0 kmh ENE 6.0 mph9.7 kmh 30.05 in1017.6 mb 0.00 in0.0 mm 0.00 in/hr0.0 mm/hr 0.00 in0.0 mm
02:37 AM 44.8°F7.1°C 43.7°F6.5°C 96% 8.1 mph ESE13.0 kmh ESE 11.0 mph17.7 kmh 30.05 in1017.6 mb 0.00 in0.0 mm 0.00 in/hr0.0 mm/hr 0.00 in0.0 mm
02:32 AM 44.8°F7.1°C 43.7°F6.5°C 96% 6.9 mph E11.1 kmh E 6.9 mph11.1 kmh 30.05 in1017.6 mb 0.00 in0.0 mm 0.00 in/hr0.0 mm/hr 0.00 in0.0 mm
02:27 AM 44.8°F7.1°C 43.7°F6.5°C 96% 6.9 mph ESE11.1 kmh ESE 8.1 mph13.0 kmh 30.05 in1017.6 mb 0.00 in0.0 mm 0.00 in/hr0.0 mm/hr 0.00 in0.0 mm
02:22 AM 44.8°F7.1°C 43.7°F6.5°C 96% 8.1 mph E13.0 kmh E 8.9 mph14.3 kmh 30.05 in1017.6 mb 0.00 in0.0 mm 0.00 in/hr0.0 mm/hr 0.00 in0.0 mm
02:17 AM 44.8°F7.1°C 43.7°F6.5°C 96% 8.1 mph E13.0 kmh E 6.9 mph11.1 kmh 30.05 in1017.6 mb 0.00 in0.0 mm 0.00 in/hr0.0 mm/hr 0.00 in0.0 mm
02:12 AM 44.8°F7.1°C 43.7°F6.5°C 96% 8.9 mph ENE14.3 kmh ENE 4.9 mph7.9 kmh 30.06 in1017.9 mb 0.00 in0.0 mm 0.00 in/hr0.0 mm/hr 0.00 in0.0 mm
02:07 AM 44.8°F7.1°C 43.7°F6.5°C 96% 8.1 mph ENE13.0 kmh ENE 11.0 mph17.7 kmh 30.06 in1017.9 mb 0.00 in0.0 mm 0.00 in/hr0.0 mm/hr 0.00 in0.0 mm
02:02 AM 44.8°F7.1°C 43.7°F6.5°C 96% 8.9 mph E14.3 kmh E 6.9 mph11.1 kmh 30.06 in1017.9 mb 0.00 in0.0 mm 0.00 in/hr0.0 mm/hr 0.00 in0.0 mm
01:57 AM 44.6°F7.0°C 43.5°F6.4°C 96% 8.9 mph E14.3 kmh E 4.9 mph7.9 kmh 30.06 in1017.9 mb 0.00 in0.0 mm 0.00 in/hr0.0 mm/hr 0.00 in0.0 mm
01:52 AM 44.4°F6.9°C 43.3°F6.3°C 96% 8.9 mph E14.3 kmh E 8.1 mph13.0 kmh 30.06 in1017.9 mb 0.00 in0.0 mm 0.00 in/hr0.0 mm/hr 0.00 in0.0 mm
01:47 AM 44.4°F6.9°C 43.3°F6.3°C 96% 10.1 mph E16.3 kmh E 10.1 mph16.3 kmh 30.06 in1017.9 mb 0.00 in0.0 mm 0.00 in/hr0.0 mm/hr 0.00 in0.0 mm
01:42 AM 44.4°F6.9°C 43.3°F6.3°C 96% 10.1 mph ESE16.3 kmh ESE 12.1 mph19.5 kmh 30.06 in1017.9 mb 0.00 in0.0 mm 0.00 in/hr0.0 mm/hr 0.00 in0.0 mm
01:37 AM 44.2°F6.8°C 43.2°F6.2°C 96% 10.1 mph E16.3 kmh E 10.1 mph16.3 kmh 30.06 in1017.9 mb 0.00 in0.0 mm 0.00 in/hr0.0 mm/hr 0.00 in0.0 mm
01:32 AM 44.2°F6.8°C 43.2°F6.2°C 96% 8.9 mph ENE14.3 kmh ENE 8.1 mph13.0 kmh 30.06 in1017.9 mb 0.00 in0.0 mm 0.00 in/hr0.0 mm/hr 0.00 in0.0 mm
01:22 AM 44.2°F6.8°C 43.2°F6.2°C 96% 10.1 mph E16.3 kmh E 4.9 mph7.9 kmh 30.06 in1017.9 mb 0.00 in0.0 mm 0.00 in/hr0.0 mm/hr 0.00 in0.0 mm
01:17 AM 44.2°F6.8°C 43.2°F6.2°C 96% 8.9 mph E14.3 kmh E 10.1 mph16.3 kmh 30.06 in1017.9 mb 0.00 in0.0 mm 0.00 in/hr0.0 mm/hr 0.00 in0.0 mm
01:12 AM 44.2°F6.8°C 43.2°F6.2°C 96% 8.9 mph ENE14.3 kmh ENE 8.9 mph14.3 kmh 30.06 in1017.9 mb 0.00 in0.0 mm 0.00 in/hr0.0 mm/hr 0.00 in0.0 mm
01:07 AM 44.2°F6.8°C 43.2°F6.2°C 96% 8.9 mph E14.3 kmh E 10.1 mph16.3 kmh 30.06 in1017.9 mb 0.00 in0.0 mm 0.00 in/hr0.0 mm/hr 0.00 in0.0 mm
01:02 AM 44.2°F6.8°C 43.2°F6.2°C 96% 8.9 mph ENE14.3 kmh ENE 13.0 mph20.9 kmh 30.06 in1017.9 mb 0.00 in0.0 mm 0.00 in/hr0.0 mm/hr 0.00 in0.0 mm
12:57 AM 44.2°F6.8°C 43.2°F6.2°C 96% 8.9 mph ENE14.3 kmh ENE 6.0 mph9.7 kmh 30.06 in1017.9 mb 0.00 in0.0 mm 0.00 in/hr0.0 mm/hr 0.00 in0.0 mm
12:52 AM 44.2°F6.8°C 43.2°F6.2°C 96% 10.1 mph E16.3 kmh E 6.9 mph11.1 kmh 30.06 in1017.9 mb 0.00 in0.0 mm 0.00 in/hr0.0 mm/hr 0.00 in0.0 mm
12:47 AM 44.1°F6.7°C 43.0°F6.1°C 96% 11.0 mph E17.7 kmh E 13.0 mph20.9 kmh 30.06 in1017.9 mb 0.00 in0.0 mm 0.00 in/hr0.0 mm/hr 0.00 in0.0 mm
12:42 AM 44.1°F6.7°C 43.0°F6.1°C 96% 8.9 mph ENE14.3 kmh ENE 10.1 mph16.3 kmh 30.06 in1017.9 mb 0.00 in0.0 mm 0.00 in/hr0.0 mm/hr 0.00 in0.0 mm
12:37 AM 44.1°F6.7°C 43.0°F6.1°C 96% 8.9 mph E14.3 kmh E 13.0 mph20.9 kmh 30.06 in1017.9 mb 0.00 in0.0 mm 0.00 in/hr0.0 mm/hr 0.00 in0.0 mm
12:32 AM 43.9°F6.6°C 42.8°F6.0°C 96% 10.1 mph ENE16.3 kmh ENE 6.0 mph9.7 kmh 30.07 in1018.3 mb 0.00 in0.0 mm 0.00 in/hr0.0 mm/hr 0.00 in0.0 mm
12:27 AM 43.9°F6.6°C 42.8°F6.0°C 96% 10.1 mph NE16.3 kmh NE 16.1 mph25.9 kmh 30.07 in1018.3 mb 0.00 in0.0 mm 0.00 in/hr0.0 mm/hr 0.00 in0.0 mm
12:22 AM 43.7°F6.5°C 42.6°F5.9°C 96% 11.0 mph NE17.7 kmh NE 13.0 mph20.9 kmh 30.07 in1018.3 mb 0.00 in0.0 mm 0.00 in/hr0.0 mm/hr 0.00 in0.0 mm
12:17 AM 43.5°F6.4°C 42.4°F5.8°C 96% 10.1 mph E16.3 kmh E 13.0 mph20.9 kmh 30.06 in1017.9 mb 0.00 in0.0 mm 0.00 in/hr0.0 mm/hr 0.00 in0.0 mm
12:12 AM 43.5°F6.4°C 42.4°F5.8°C 96% 8.9 mph ENE14.3 kmh ENE 13.0 mph20.9 kmh 30.06 in1017.9 mb 0.00 in0.0 mm 0.00 in/hr0.0 mm/hr 0.00 in0.0 mm
12:07 AM 43.5°F6.4°C 42.4°F5.8°C 96% 10.1 mph ENE16.3 kmh ENE 11.0 mph17.7 kmh 30.06 in1017.9 mb 0.00 in0.0 mm 0.00 in/hr0.0 mm/hr 0.00 in0.0 mm
12:02 AM 43.5°F6.4°C 42.4°F5.8°C 96% 8.9 mph ENE14.3 kmh ENE 4.9 mph7.9 kmh 30.07 in1018.3 mb 0.00 in0.0 mm 0.00 in/hr0.0 mm/hr 0.20 in5.1 mm